Denver International Airport
KDEN : now visible

Airfield :











YOU CAN JOIN US ON...

 
LOGIN :

Register | Disclaimer

   EN    FR    IT 

 









Legend :    VFR   Marginal VFR   IFR   Intensive IFR   Very Intensive IFR
Visi :
Ceiling :
>= 8 km
>= 3000ft
5 to 8 km
1000 to 3000 ft
1500m to 5 km
500 to 1000 ft
800 to 1500m
200 to 500 ft
< 800m
< 200 ft
Symbols :   Thunderstorms  Fog  Heavy snow  Heavy precipitations  Wind > 20 kt






- Airport Elevation : 5431 ft
- IATA code : DEN


KDEN - Denver International

CURRENT METAR :
  • 241653Z 03004KT 10SM SCT013 BKN035 OVC110 08/03 A3004 RMK AO2 SLP147 T00780033

EXPIRED METARs :
  • 241553Z 34004KT 10SM BKN008 OVC110 06/03 A3004 RMK AO2 SLP151 T00610033
  • 241453Z 04005KT 8SM OVC007 06/03 A3005 RMK AO2 SLP152 T00560033 53002
  • 241440Z 05007KT 8SM OVC007 06/03 A3005 RMK AO2 T00560033

TAF KDEN
Valid from the 24 at 15:00 until the 25 at 18:00 UTC


241512Z 2415/2518 04006KT P6SM OVC007
FM241600 05007KT P6SM BKN012 OVC040
FM241800 05010KT P6SM BKN025 BKN070
FM242300 07007KT P6SM VCSH SCT030 BKN050
FM250300 12007KT P6SM SCT030 BKN060
FM250600 20007KT P6SM SCT060
FM251500 29010KT P6SM FEW080
KZDV FIR / North America



MET'MAP, your aeronautical weather chart ! - Copyright ORBIFLY December 2007 - Disclaimer

ORBIFLY MET'MAP TEAM :

Programming & Development : Alexandra Zaïnal
Original concept : Baudouin d'Aumeries
Technical & hardware support : Manuel Goepfert
Assistance : Marc-Olivier Méhu

Contact : metmap@orbifly.com




SOURCES & CREDITS :

   NOAA       Earth
Advisory